sensor_id;sensor_type;location;lat;lon;timestamp;P1;durP1;ratioP1;P2;durP2;ratioP2
24421;SDS011;12600;53.326;-6.298;2023-05-29T00:02:02;20.13;;;4.40;;
24421;SDS011;12600;53.326;-6.298;2023-05-29T00:04:52;21.50;;;4.05;;
24421;SDS011;12600;53.326;-6.298;2023-05-29T00:07:41;19.63;;;3.60;;
24421;SDS011;12600;53.326;-6.298;2023-05-29T00:10:31;20.67;;;3.65;;
24421;SDS011;12600;53.326;-6.298;2023-05-29T00:13:24;27.63;;;3.92;;
24421;SDS011;12600;53.326;-6.298;2023-05-29T00:16:14;14.43;;;3.78;;
24421;SDS011;12600;53.326;-6.298;2023-05-29T00:19:05;23.88;;;3.83;;
24421;SDS011;12600;53.326;-6.298;2023-05-29T00:21:56;20.58;;;4.00;;
24421;SDS011;12600;53.326;-6.298;2023-05-29T00:24:45;20.08;;;3.60;;
24421;SDS011;12600;53.326;-6.298;2023-05-29T00:27:35;19.63;;;3.92;;
24421;SDS011;12600;53.326;-6.298;2023-05-29T00:30:26;21.20;;;3.83;;
24421;SDS011;12600;53.326;-6.298;2023-05-29T00:33:15;23.95;;;4.53;;
24421;SDS011;12600;53.326;-6.298;2023-05-29T00:36:06;20.25;;;4.18;;
24421;SDS011;12600;53.326;-6.298;2023-05-29T00:38:56;20.90;;;4.13;;
24421;SDS011;12600;53.326;-6.298;2023-05-29T00:41:46;23.60;;;4.25;;
24421;SDS011;12600;53.326;-6.298;2023-05-29T00:44:38;17.65;;;3.60;;
24421;SDS011;12600;53.326;-6.298;2023-05-29T00:47:29;21.55;;;4.15;;
24421;SDS011;12600;53.326;-6.298;2023-05-29T00:50:19;19.67;;;4.07;;
24421;SDS011;12600;53.326;-6.298;2023-05-29T00:53:12;20.90;;;4.10;;
24421;SDS011;12600;53.326;-6.298;2023-05-29T00:56:02;19.25;;;4.20;;
24421;SDS011;12600;53.326;-6.298;2023-05-29T00:58:54;17.65;;;3.90;;
24421;SDS011;12600;53.326;-6.298;2023-05-29T01:01:43;17.80;;;3.92;;
24421;SDS011;12600;53.326;-6.298;2023-05-29T01:04:34;27.65;;;4.97;;
24421;SDS011;12600;53.326;-6.298;2023-05-29T01:07:25;26.58;;;4.20;;
24421;SDS011;12600;53.326;-6.298;2023-05-29T01:10:14;23.13;;;4.10;;
24421;SDS011;12600;53.326;-6.298;2023-05-29T01:13:06;21.08;;;4.57;;
24421;SDS011;12600;53.326;-6.298;2023-05-29T01:16:01;23.83;;;4.28;;
24421;SDS011;12600;53.326;-6.298;2023-05-29T01:18:57;18.52;;;3.92;;
24421;SDS011;12600;53.326;-6.298;2023-05-29T01:22:01;21.42;;;4.15;;
24421;SDS011;12600;53.326;-6.298;2023-05-29T01:25:04;15.73;;;3.72;;
24421;SDS011;12600;53.326;-6.298;2023-05-29T01:28:07;24.88;;;4.55;;
24421;SDS011;12600;53.326;-6.298;2023-05-29T01:30:59;21.33;;;4.25;;
24421;SDS011;12600;53.326;-6.298;2023-05-29T01:33:51;22.67;;;4.55;;
24421;SDS011;12600;53.326;-6.298;2023-05-29T01:36:42;19.02;;;3.65;;
24421;SDS011;12600;53.326;-6.298;2023-05-29T01:39:34;25.77;;;5.05;;
24421;SDS011;12600;53.326;-6.298;2023-05-29T01:42:24;21.77;;;4.40;;
24421;SDS011;12600;53.326;-6.298;2023-05-29T01:45:15;24.02;;;4.53;;
24421;SDS011;12600;53.326;-6.298;2023-05-29T01:48:06;23.65;;;4.82;;
24421;SDS011;12600;53.326;-6.298;2023-05-29T01:50:56;22.10;;;4.45;;
24421;SDS011;12600;53.326;-6.298;2023-05-29T01:53:47;22.55;;;5.25;;
24421;SDS011;12600;53.326;-6.298;2023-05-29T01:56:36;19.13;;;4.25;;
24421;SDS011;12600;53.326;-6.298;2023-05-29T01:59:27;20.50;;;4.20;;
24421;SDS011;12600;53.326;-6.298;2023-05-29T02:02:21;25.40;;;4.30;;
24421;SDS011;12600;53.326;-6.298;2023-05-29T02:05:11;26.08;;;4.85;;
24421;SDS011;12600;53.326;-6.298;2023-05-29T02:08:00;26.83;;;4.03;;
24421;SDS011;12600;53.326;-6.298;2023-05-29T02:10:49;21.13;;;4.25;;
24421;SDS011;12600;53.326;-6.298;2023-05-29T02:13:39;21.75;;;4.60;;
24421;SDS011;12600;53.326;-6.298;2023-05-29T02:16:30;20.08;;;3.95;;
24421;SDS011;12600;53.326;-6.298;2023-05-29T02:19:22;24.90;;;4.80;;
24421;SDS011;12600;53.326;-6.298;2023-05-29T02:22:12;18.40;;;4.43;;
24421;SDS011;12600;53.326;-6.298;2023-05-29T02:25:02;23.10;;;4.38;;
24421;SDS011;12600;53.326;-6.298;2023-05-29T02:27:53;30.48;;;4.80;;
24421;SDS011;12600;53.326;-6.298;2023-05-29T02:30:42;30.05;;;5.40;;
24421;SDS011;12600;53.326;-6.298;2023-05-29T02:33:32;30.70;;;5.47;;
24421;SDS011;12600;53.326;-6.298;2023-05-29T02:36:22;21.85;;;4.63;;
24421;SDS011;12600;53.326;-6.298;2023-05-29T02:39:12;33.53;;;5.40;;
24421;SDS011;12600;53.326;-6.298;2023-05-29T02:42:02;21.40;;;4.47;;
24421;SDS011;12600;53.326;-6.298;2023-05-29T02:44:54;26.45;;;4.70;;
24421;SDS011;12600;53.326;-6.298;2023-05-29T02:47:44;32.47;;;4.93;;
24421;SDS011;12600;53.326;-6.298;2023-05-29T02:50:33;22.30;;;4.85;;
24421;SDS011;12600;53.326;-6.298;2023-05-29T02:53:24;29.65;;;5.25;;
24421;SDS011;12600;53.326;-6.298;2023-05-29T02:56:14;33.70;;;5.63;;
24421;SDS011;12600;53.326;-6.298;2023-05-29T02:59:04;28.77;;;4.88;;
24421;SDS011;12600;53.326;-6.298;2023-05-29T03:01:54;27.17;;;4.63;;
24421;SDS011;12600;53.326;-6.298;2023-05-29T03:04:44;19.85;;;4.72;;
24421;SDS011;12600;53.326;-6.298;2023-05-29T03:07:33;30.85;;;5.30;;
24421;SDS011;12600;53.326;-6.298;2023-05-29T03:10:24;33.47;;;4.95;;
24421;SDS011;12600;53.326;-6.298;2023-05-29T03:13:14;30.13;;;5.60;;
24421;SDS011;12600;53.326;-6.298;2023-05-29T03:16:13;28.60;;;4.93;;
24421;SDS011;12600;53.326;-6.298;2023-05-29T03:19:04;26.13;;;5.13;;
24421;SDS011;12600;53.326;-6.298;2023-05-29T03:21:54;27.13;;;5.13;;
24421;SDS011;12600;53.326;-6.298;2023-05-29T03:24:44;28.63;;;5.07;;
24421;SDS011;12600;53.326;-6.298;2023-05-29T03:27:35;31.05;;;5.57;;
24421;SDS011;12600;53.326;-6.298;2023-05-29T03:30:29;27.52;;;5.00;;
24421;SDS011;12600;53.326;-6.298;2023-05-29T03:33:18;21.85;;;4.63;;
24421;SDS011;12600;53.326;-6.298;2023-05-29T03:36:22;32.17;;;6.90;;
24421;SDS011;12600;53.326;-6.298;2023-05-29T03:39:12;28.92;;;5.57;;
24421;SDS011;12600;53.326;-6.298;2023-05-29T03:42:01;23.00;;;5.57;;
24421;SDS011;12600;53.326;-6.298;2023-05-29T03:44:52;28.88;;;5.47;;
24421;SDS011;12600;53.326;-6.298;2023-05-29T03:47:43;25.17;;;5.35;;
24421;SDS011;12600;53.326;-6.298;2023-05-29T03:50:33;35.47;;;6.43;;
24421;SDS011;12600;53.326;-6.298;2023-05-29T03:53:22;32.17;;;6.05;;
24421;SDS011;12600;53.326;-6.298;2023-05-29T03:56:12;22.20;;;5.03;;
24421;SDS011;12600;53.326;-6.298;2023-05-29T03:59:02;23.73;;;5.45;;
24421;SDS011;12600;53.326;-6.298;2023-05-29T04:01:53;39.70;;;6.25;;
24421;SDS011;12600;53.326;-6.298;2023-05-29T04:04:43;27.63;;;5.45;;
24421;SDS011;12600;53.326;-6.298;2023-05-29T04:07:32;32.17;;;5.47;;
24421;SDS011;12600;53.326;-6.298;2023-05-29T04:10:24;27.55;;;5.38;;
24421;SDS011;12600;53.326;-6.298;2023-05-29T04:13:13;29.67;;;5.60;;
24421;SDS011;12600;53.326;-6.298;2023-05-29T04:16:03;27.92;;;5.78;;
24421;SDS011;12600;53.326;-6.298;2023-05-29T04:18:54;34.60;;;6.32;;
24421;SDS011;12600;53.326;-6.298;2023-05-29T04:21:47;27.27;;;6.07;;
24421;SDS011;12600;53.326;-6.298;2023-05-29T04:24:36;28.25;;;5.35;;
24421;SDS011;12600;53.326;-6.298;2023-05-29T04:27:27;37.97;;;6.50;;
24421;SDS011;12600;53.326;-6.298;2023-05-29T04:30:16;28.63;;;5.97;;
24421;SDS011;12600;53.326;-6.298;2023-05-29T04:33:08;31.42;;;6.30;;
24421;SDS011;12600;53.326;-6.298;2023-05-29T04:36:06;26.70;;;5.78;;
24421;SDS011;12600;53.326;-6.298;2023-05-29T04:39:00;33.70;;;6.47;;
24421;SDS011;12600;53.326;-6.298;2023-05-29T04:41:50;28.05;;;7.10;;
24421;SDS011;12600;53.326;-6.298;2023-05-29T04:44:45;32.40;;;7.03;;
24421;SDS011;12600;53.326;-6.298;2023-05-29T04:47:35;41.88;;;6.40;;
24421;SDS011;12600;53.326;-6.298;2023-05-29T04:50:31;24.50;;;5.70;;
24421;SDS011;12600;53.326;-6.298;2023-05-29T04:53:24;35.13;;;6.25;;
24421;SDS011;12600;53.326;-6.298;2023-05-29T04:56:15;30.42;;;5.95;;
24421;SDS011;12600;53.326;-6.298;2023-05-29T04:59:08;26.92;;;5.75;;
24421;SDS011;12600;53.326;-6.298;2023-05-29T05:02:00;39.10;;;7.55;;
24421;SDS011;12600;53.326;-6.298;2023-05-29T05:04:52;33.80;;;7.05;;
24421;SDS011;12600;53.326;-6.298;2023-05-29T05:07:44;26.90;;;6.32;;
24421;SDS011;12600;53.326;-6.298;2023-05-29T05:10:35;32.67;;;6.90;;
24421;SDS011;12600;53.326;-6.298;2023-05-29T05:13:26;35.65;;;6.07;;
24421;SDS011;12600;53.326;-6.298;2023-05-29T05:16:16;28.63;;;6.18;;
24421;SDS011;12600;53.326;-6.298;2023-05-29T05:19:06;37.30;;;6.07;;
24421;SDS011;12600;53.326;-6.298;2023-05-29T05:22:00;21.88;;;6.10;;
24421;SDS011;12600;53.326;-6.298;2023-05-29T05:24:49;28.88;;;6.65;;
24421;SDS011;12600;53.326;-6.298;2023-05-29T05:27:45;33.65;;;6.38;;
24421;SDS011;12600;53.326;-6.298;2023-05-29T05:30:34;31.35;;;5.93;;
24421;SDS011;12600;53.326;-6.298;2023-05-29T05:33:25;36.17;;;6.85;;
24421;SDS011;12600;53.326;-6.298;2023-05-29T05:36:16;35.47;;;6.65;;
24421;SDS011;12600;53.326;-6.298;2023-05-29T05:39:15;36.00;;;6.82;;
24421;SDS011;12600;53.326;-6.298;2023-05-29T05:42:06;33.17;;;6.88;;
24421;SDS011;12600;53.326;-6.298;2023-05-29T05:45:10;39.70;;;6.88;;
24421;SDS011;12600;53.326;-6.298;2023-05-29T05:48:02;34.60;;;7.35;;
24421;SDS011;12600;53.326;-6.298;2023-05-29T05:50:52;31.85;;;6.28;;
24421;SDS011;12600;53.326;-6.298;2023-05-29T05:53:50;33.83;;;7.00;;
24421;SDS011;12600;53.326;-6.298;2023-05-29T05:56:46;38.10;;;6.80;;
24421;SDS011;12600;53.326;-6.298;2023-05-29T05:59:45;35.00;;;6.68;;
24421;SDS011;12600;53.326;-6.298;2023-05-29T06:02:36;25.90;;;5.80;;
24421;SDS011;12600;53.326;-6.298;2023-05-29T06:05:37;34.13;;;6.97;;
24421;SDS011;12600;53.326;-6.298;2023-05-29T06:11:20;42.30;;;13.02;;
24421;SDS011;12600;53.326;-6.298;2023-05-29T06:14:13;32.17;;;9.27;;
24421;SDS011;12600;53.326;-6.298;2023-05-29T06:17:07;35.85;;;9.60;;
24421;SDS011;12600;53.326;-6.298;2023-05-29T06:19:59;31.08;;;11.07;;
24421;SDS011;12600;53.326;-6.298;2023-05-29T06:22:48;33.33;;;10.65;;
24421;SDS011;12600;53.326;-6.298;2023-05-29T06:25:38;34.75;;;10.32;;
24421;SDS011;12600;53.326;-6.298;2023-05-29T06:28:28;22.80;;;9.70;;
24421;SDS011;12600;53.326;-6.298;2023-05-29T06:31:18;27.90;;;13.88;;
24421;SDS011;12600;53.326;-6.298;2023-05-29T06:34:09;26.15;;;9.80;;
24421;SDS011;12600;53.326;-6.298;2023-05-29T06:37:00;27.15;;;8.88;;
24421;SDS011;12600;53.326;-6.298;2023-05-29T06:39:49;25.88;;;8.70;;
24421;SDS011;12600;53.326;-6.298;2023-05-29T06:42:39;27.38;;;8.93;;
24421;SDS011;12600;53.326;-6.298;2023-05-29T06:45:34;19.00;;;7.93;;
24421;SDS011;12600;53.326;-6.298;2023-05-29T06:48:23;24.10;;;8.35;;
24421;SDS011;12600;53.326;-6.298;2023-05-29T06:51:12;22.35;;;8.10;;
24421;SDS011;12600;53.326;-6.298;2023-05-29T06:54:06;22.08;;;7.95;;
24421;SDS011;12600;53.326;-6.298;2023-05-29T06:59:57;19.00;;;7.45;;
24421;SDS011;12600;53.326;-6.298;2023-05-29T07:02:50;21.42;;;8.23;;
24421;SDS011;12600;53.326;-6.298;2023-05-29T07:05:40;26.35;;;8.98;;
24421;SDS011;12600;53.326;-6.298;2023-05-29T07:08:32;21.17;;;8.02;;
24421;SDS011;12600;53.326;-6.298;2023-05-29T07:11:23;20.92;;;8.10;;
24421;SDS011;12600;53.326;-6.298;2023-05-29T07:14:14;19.42;;;8.43;;
24421;SDS011;12600;53.326;-6.298;2023-05-29T07:17:04;21.33;;;9.18;;
24421;SDS011;12600;53.326;-6.298;2023-05-29T07:19:54;26.63;;;9.50;;
24421;SDS011;12600;53.326;-6.298;2023-05-29T07:22:45;24.10;;;10.00;;
24421;SDS011;12600;53.326;-6.298;2023-05-29T07:25:34;24.67;;;10.38;;
24421;SDS011;12600;53.326;-6.298;2023-05-29T07:28:25;27.38;;;10.73;;
24421;SDS011;12600;53.326;-6.298;2023-05-29T07:31:14;28.75;;;11.57;;
24421;SDS011;12600;53.326;-6.298;2023-05-29T07:34:06;39.08;;;13.10;;
24421;SDS011;12600;53.326;-6.298;2023-05-29T07:36:56;31.50;;;11.70;;
24421;SDS011;12600;53.326;-6.298;2023-05-29T07:39:48;37.25;;;12.65;;
24421;SDS011;12600;53.326;-6.298;2023-05-29T07:42:56;32.38;;;12.63;;
24421;SDS011;12600;53.326;-6.298;2023-05-29T07:45:58;38.58;;;13.30;;
24421;SDS011;12600;53.326;-6.298;2023-05-29T07:48:49;31.75;;;12.70;;
24421;SDS011;12600;53.326;-6.298;2023-05-29T07:51:39;42.45;;;13.90;;
24421;SDS011;12600;53.326;-6.298;2023-05-29T07:54:28;39.60;;;14.27;;
24421;SDS011;12600;53.326;-6.298;2023-05-29T07:57:21;36.92;;;14.13;;
24421;SDS011;12600;53.326;-6.298;2023-05-29T08:03:08;42.13;;;13.48;;
24421;SDS011;12600;53.326;-6.298;2023-05-29T08:06:16;34.53;;;13.35;;
24421;SDS011;12600;53.326;-6.298;2023-05-29T08:09:06;38.00;;;12.98;;
24421;SDS011;12600;53.326;-6.298;2023-05-29T08:11:58;30.60;;;13.20;;
24421;SDS011;12600;53.326;-6.298;2023-05-29T08:14:48;34.08;;;12.82;;
24421;SDS011;12600;53.326;-6.298;2023-05-29T08:17:39;37.60;;;12.65;;
24421;SDS011;12600;53.326;-6.298;2023-05-29T08:20:30;32.55;;;11.98;;
24421;SDS011;12600;53.326;-6.298;2023-05-29T08:26:11;26.45;;;10.73;;
24421;SDS011;12600;53.326;-6.298;2023-05-29T08:29:01;27.42;;;11.40;;
24421;SDS011;12600;53.326;-6.298;2023-05-29T08:31:51;27.20;;;10.90;;
24421;SDS011;12600;53.326;-6.298;2023-05-29T08:34:41;26.67;;;9.93;;
24421;SDS011;12600;53.326;-6.298;2023-05-29T08:37:34;23.17;;;9.32;;
24421;SDS011;12600;53.326;-6.298;2023-05-29T08:40:23;26.77;;;9.25;;
24421;SDS011;12600;53.326;-6.298;2023-05-29T08:43:15;32.78;;;9.48;;
24421;SDS011;12600;53.326;-6.298;2023-05-29T08:46:09;25.92;;;8.35;;
24421;SDS011;12600;53.326;-6.298;2023-05-29T08:49:00;29.98;;;7.68;;
24421;SDS011;12600;53.326;-6.298;2023-05-29T08:51:57;25.63;;;8.05;;
24421;SDS011;12600;53.326;-6.298;2023-05-29T08:54:57;24.80;;;8.00;;
24421;SDS011;12600;53.326;-6.298;2023-05-29T08:57:48;25.17;;;8.10;;
24421;SDS011;12600;53.326;-6.298;2023-05-29T09:00:38;27.05;;;8.02;;
24421;SDS011;12600;53.326;-6.298;2023-05-29T09:03:28;22.77;;;7.88;;
24421;SDS011;12600;53.326;-6.298;2023-05-29T09:06:18;23.27;;;7.82;;
24421;SDS011;12600;53.326;-6.298;2023-05-29T09:09:08;23.65;;;7.60;;
24421;SDS011;12600;53.326;-6.298;2023-05-29T09:11:59;23.02;;;7.45;;
24421;SDS011;12600;53.326;-6.298;2023-05-29T09:14:56;26.60;;;7.60;;
24421;SDS011;12600;53.326;-6.298;2023-05-29T09:17:50;24.13;;;7.30;;
24421;SDS011;12600;53.326;-6.298;2023-05-29T09:20:40;14.82;;;4.95;;
24421;SDS011;12600;53.326;-6.298;2023-05-29T09:23:30;17.85;;;5.00;;
24421;SDS011;12600;53.326;-6.298;2023-05-29T09:26:20;23.20;;;5.47;;
24421;SDS011;12600;53.326;-6.298;2023-05-29T09:29:12;18.92;;;5.40;;
24421;SDS011;12600;53.326;-6.298;2023-05-29T09:32:06;20.30;;;5.07;;
24421;SDS011;12600;53.326;-6.298;2023-05-29T09:34:59;20.65;;;5.00;;
24421;SDS011;12600;53.326;-6.298;2023-05-29T09:37:49;21.83;;;5.18;;
24421;SDS011;12600;53.326;-6.298;2023-05-29T09:40:40;20.48;;;5.55;;
24421;SDS011;12600;53.326;-6.298;2023-05-29T09:43:33;28.60;;;5.75;;
24421;SDS011;12600;53.326;-6.298;2023-05-29T09:46:27;22.50;;;5.50;;
24421;SDS011;12600;53.326;-6.298;2023-05-29T09:49:17;20.77;;;5.07;;
24421;SDS011;12600;53.326;-6.298;2023-05-29T09:52:12;17.75;;;5.00;;
24421;SDS011;12600;53.326;-6.298;2023-05-29T09:55:03;37.20;;;16.23;;
24421;SDS011;12600;53.326;-6.298;2023-05-29T09:57:53;16.55;;;4.43;;
24421;SDS011;12600;53.326;-6.298;2023-05-29T10:00:47;20.80;;;4.95;;
24421;SDS011;12600;53.326;-6.298;2023-05-29T10:03:41;20.20;;;5.03;;
24421;SDS011;12600;53.326;-6.298;2023-05-29T10:06:31;18.13;;;5.15;;
24421;SDS011;12600;53.326;-6.298;2023-05-29T10:09:24;19.58;;;5.38;;
24421;SDS011;12600;53.326;-6.298;2023-05-29T10:12:15;18.05;;;4.90;;
24421;SDS011;12600;53.326;-6.298;2023-05-29T10:15:11;17.67;;;5.43;;
24421;SDS011;12600;53.326;-6.298;2023-05-29T10:18:08;15.02;;;4.50;;
24421;SDS011;12600;53.326;-6.298;2023-05-29T10:21:03;19.05;;;4.72;;
24421;SDS011;12600;53.326;-6.298;2023-05-29T10:23:55;16.80;;;4.75;;
24421;SDS011;12600;53.326;-6.298;2023-05-29T10:26:47;13.93;;;4.70;;
24421;SDS011;12600;53.326;-6.298;2023-05-29T10:29:39;19.25;;;4.78;;
24421;SDS011;12600;53.326;-6.298;2023-05-29T10:32:37;15.85;;;4.57;;
24421;SDS011;12600;53.326;-6.298;2023-05-29T10:35:40;18.15;;;4.88;;
24421;SDS011;12600;53.326;-6.298;2023-05-29T10:38:36;20.05;;;5.07;;
24421;SDS011;12600;53.326;-6.298;2023-05-29T10:41:32;15.32;;;4.10;;
24421;SDS011;12600;53.326;-6.298;2023-05-29T10:44:39;15.63;;;4.30;;
24421;SDS011;12600;53.326;-6.298;2023-05-29T10:47:28;18.20;;;4.40;;
24421;SDS011;12600;53.326;-6.298;2023-05-29T10:50:35;13.90;;;4.35;;
24421;SDS011;12600;53.326;-6.298;2023-05-29T10:53:27;17.17;;;4.28;;
24421;SDS011;12600;53.326;-6.298;2023-05-29T10:56:22;14.23;;;4.20;;
24421;SDS011;12600;53.326;-6.298;2023-05-29T10:59:16;13.63;;;3.58;;
24421;SDS011;12600;53.326;-6.298;2023-05-29T11:02:07;10.90;;;4.10;;
24421;SDS011;12600;53.326;-6.298;2023-05-29T11:05:06;14.60;;;3.90;;
24421;SDS011;12600;53.326;-6.298;2023-05-29T11:08:12;13.55;;;4.07;;
24421;SDS011;12600;53.326;-6.298;2023-05-29T11:11:02;11.18;;;3.40;;
24421;SDS011;12600;53.326;-6.298;2023-05-29T11:13:55;15.10;;;3.65;;
24421;SDS011;12600;53.326;-6.298;2023-05-29T11:16:46;15.73;;;4.03;;
24421;SDS011;12600;53.326;-6.298;2023-05-29T11:19:36;12.82;;;3.85;;
24421;SDS011;12600;53.326;-6.298;2023-05-29T11:22:27;11.52;;;3.45;;
24421;SDS011;12600;53.326;-6.298;2023-05-29T11:25:36;13.75;;;3.40;;
24421;SDS011;12600;53.326;-6.298;2023-05-29T11:28:26;12.05;;;3.40;;
24421;SDS011;12600;53.326;-6.298;2023-05-29T11:31:18;10.32;;;3.58;;
24421;SDS011;12600;53.326;-6.298;2023-05-29T11:34:14;13.50;;;3.53;;
24421;SDS011;12600;53.326;-6.298;2023-05-29T11:37:04;11.43;;;3.53;;
24421;SDS011;12600;53.326;-6.298;2023-05-29T11:39:54;10.60;;;3.20;;
24421;SDS011;12600;53.326;-6.298;2023-05-29T11:42:44;16.27;;;3.97;;
24421;SDS011;12600;53.326;-6.298;2023-05-29T11:45:36;10.70;;;3.55;;
24421;SDS011;12600;53.326;-6.298;2023-05-29T11:48:27;8.02;;;2.90;;
24421;SDS011;12600;53.326;-6.298;2023-05-29T11:51:17;10.40;;;3.25;;
24421;SDS011;12600;53.326;-6.298;2023-05-29T11:54:06;12.73;;;3.65;;
24421;SDS011;12600;53.326;-6.298;2023-05-29T11:56:57;12.27;;;3.97;;
24421;SDS011;12600;53.326;-6.298;2023-05-29T11:59:47;9.05;;;3.10;;
24421;SDS011;12600;53.326;-6.298;2023-05-29T12:02:39;12.10;;;3.15;;
24421;SDS011;12600;53.326;-6.298;2023-05-29T12:05:32;13.52;;;3.50;;
24421;SDS011;12600;53.326;-6.298;2023-05-29T12:08:36;10.18;;;3.17;;
24421;SDS011;12600;53.326;-6.298;2023-05-29T12:11:26;11.60;;;4.00;;
24421;SDS011;12600;53.326;-6.298;2023-05-29T12:14:16;11.70;;;3.20;;
24421;SDS011;12600;53.326;-6.298;2023-05-29T12:17:05;10.38;;;2.88;;
24421;SDS011;12600;53.326;-6.298;2023-05-29T12:19:56;9.52;;;2.97;;
24421;SDS011;12600;53.326;-6.298;2023-05-29T12:22:47;8.68;;;3.42;;
24421;SDS011;12600;53.326;-6.298;2023-05-29T12:25:36;12.77;;;3.95;;
24421;SDS011;12600;53.326;-6.298;2023-05-29T12:28:25;12.35;;;3.53;;
24421;SDS011;12600;53.326;-6.298;2023-05-29T12:31:25;12.40;;;3.50;;
24421;SDS011;12600;53.326;-6.298;2023-05-29T12:34:16;16.63;;;5.80;;
24421;SDS011;12600;53.326;-6.298;2023-05-29T12:37:07;12.30;;;3.95;;
24421;SDS011;12600;53.326;-6.298;2023-05-29T12:40:18;13.85;;;3.78;;
24421;SDS011;12600;53.326;-6.298;2023-05-29T12:43:10;12.75;;;3.88;;
24421;SDS011;12600;53.326;-6.298;2023-05-29T12:45:59;15.52;;;3.60;;
24421;SDS011;12600;53.326;-6.298;2023-05-29T12:48:48;12.65;;;3.80;;
24421;SDS011;12600;53.326;-6.298;2023-05-29T12:51:40;15.60;;;4.00;;
24421;SDS011;12600;53.326;-6.298;2023-05-29T12:54:30;10.57;;;3.83;;
24421;SDS011;12600;53.326;-6.298;2023-05-29T12:57:21;11.23;;;4.25;;
24421;SDS011;12600;53.326;-6.298;2023-05-29T13:00:11;15.07;;;4.45;;
24421;SDS011;12600;53.326;-6.298;2023-05-29T13:03:01;12.88;;;3.70;;
24421;SDS011;12600;53.326;-6.298;2023-05-29T13:05:51;16.77;;;4.40;;
24421;SDS011;12600;53.326;-6.298;2023-05-29T13:08:41;12.80;;;4.10;;
24421;SDS011;12600;53.326;-6.298;2023-05-29T13:11:31;13.45;;;4.13;;
24421;SDS011;12600;53.326;-6.298;2023-05-29T13:14:24;11.55;;;3.92;;
24421;SDS011;12600;53.326;-6.298;2023-05-29T13:17:14;12.13;;;4.28;;
24421;SDS011;12600;53.326;-6.298;2023-05-29T13:20:04;13.43;;;4.05;;
24421;SDS011;12600;53.326;-6.298;2023-05-29T13:25:46;11.85;;;3.67;;
24421;SDS011;12600;53.326;-6.298;2023-05-29T13:28:36;14.13;;;3.70;;
24421;SDS011;12600;53.326;-6.298;2023-05-29T13:31:27;12.02;;;3.53;;
24421;SDS011;12600;53.326;-6.298;2023-05-29T13:34:17;12.68;;;3.80;;
24421;SDS011;12600;53.326;-6.298;2023-05-29T13:37:06;13.63;;;4.25;;
24421;SDS011;12600;53.326;-6.298;2023-05-29T13:39:55;12.13;;;3.83;;
24421;SDS011;12600;53.326;-6.298;2023-05-29T13:42:45;12.88;;;3.95;;
24421;SDS011;12600;53.326;-6.298;2023-05-29T13:45:34;13.55;;;3.97;;
24421;SDS011;12600;53.326;-6.298;2023-05-29T13:48:25;11.65;;;3.88;;
24421;SDS011;12600;53.326;-6.298;2023-05-29T13:51:15;14.10;;;4.03;;
24421;SDS011;12600;53.326;-6.298;2023-05-29T13:54:04;15.05;;;4.68;;
24421;SDS011;12600;53.326;-6.298;2023-05-29T13:56:53;17.25;;;4.60;;
24421;SDS011;12600;53.326;-6.298;2023-05-29T13:59:43;16.05;;;4.22;;
24421;SDS011;12600;53.326;-6.298;2023-05-29T14:02:32;16.30;;;4.65;;
24421;SDS011;12600;53.326;-6.298;2023-05-29T14:05:23;14.60;;;4.28;;
24421;SDS011;12600;53.326;-6.298;2023-05-29T14:08:13;14.52;;;4.50;;
24421;SDS011;12600;53.326;-6.298;2023-05-29T14:11:02;14.10;;;4.00;;
24421;SDS011;12600;53.326;-6.298;2023-05-29T14:13:52;16.48;;;4.95;;
24421;SDS011;12600;53.326;-6.298;2023-05-29T14:16:41;13.93;;;4.25;;
24421;SDS011;12600;53.326;-6.298;2023-05-29T14:19:31;19.45;;;3.97;;
24421;SDS011;12600;53.326;-6.298;2023-05-29T14:22:22;11.88;;;3.50;;
24421;SDS011;12600;53.326;-6.298;2023-05-29T14:25:11;13.70;;;3.80;;
24421;SDS011;12600;53.326;-6.298;2023-05-29T14:28:01;11.95;;;4.07;;
24421;SDS011;12600;53.326;-6.298;2023-05-29T14:30:50;14.15;;;3.70;;
24421;SDS011;12600;53.326;-6.298;2023-05-29T14:33:39;10.32;;;3.05;;
24421;SDS011;12600;53.326;-6.298;2023-05-29T14:36:29;12.25;;;3.55;;
24421;SDS011;12600;53.326;-6.298;2023-05-29T14:39:19;11.05;;;3.55;;
24421;SDS011;12600;53.326;-6.298;2023-05-29T14:42:09;14.90;;;3.60;;
24421;SDS011;12600;53.326;-6.298;2023-05-29T14:44:58;9.95;;;3.55;;
24421;SDS011;12600;53.326;-6.298;2023-05-29T14:47:48;12.02;;;3.22;;
24421;SDS011;12600;53.326;-6.298;2023-05-29T14:50:38;11.70;;;3.72;;
24421;SDS011;12600;53.326;-6.298;2023-05-29T14:53:28;10.07;;;3.38;;
24421;SDS011;12600;53.326;-6.298;2023-05-29T14:56:20;10.93;;;3.10;;
24421;SDS011;12600;53.326;-6.298;2023-05-29T14:59:09;11.20;;;3.60;;
24421;SDS011;12600;53.326;-6.298;2023-05-29T15:01:59;13.80;;;3.38;;
24421;SDS011;12600;53.326;-6.298;2023-05-29T15:04:48;10.05;;;3.13;;
24421;SDS011;12600;53.326;-6.298;2023-05-29T15:07:38;10.75;;;3.45;;
24421;SDS011;12600;53.326;-6.298;2023-05-29T15:10:28;11.10;;;3.17;;
24421;SDS011;12600;53.326;-6.298;2023-05-29T15:13:18;14.32;;;3.80;;
24421;SDS011;12600;53.326;-6.298;2023-05-29T15:16:08;12.60;;;3.63;;
24421;SDS011;12600;53.326;-6.298;2023-05-29T15:18:57;10.93;;;3.17;;
24421;SDS011;12600;53.326;-6.298;2023-05-29T15:21:46;15.98;;;5.70;;
24421;SDS011;12600;53.326;-6.298;2023-05-29T15:24:36;19.42;;;8.88;;
24421;SDS011;12600;53.326;-6.298;2023-05-29T15:27:26;10.70;;;3.50;;
24421;SDS011;12600;53.326;-6.298;2023-05-29T15:30:19;34.57;;;13.53;;
24421;SDS011;12600;53.326;-6.298;2023-05-29T15:33:10;15.57;;;5.13;;
24421;SDS011;12600;53.326;-6.298;2023-05-29T15:36:00;19.20;;;7.72;;
24421;SDS011;12600;53.326;-6.298;2023-05-29T15:38:49;16.00;;;4.35;;
24421;SDS011;12600;53.326;-6.298;2023-05-29T15:41:38;20.25;;;7.95;;
24421;SDS011;12600;53.326;-6.298;2023-05-29T15:44:28;9.93;;;3.60;;
24421;SDS011;12600;53.326;-6.298;2023-05-29T15:47:18;10.10;;;3.38;;
24421;SDS011;12600;53.326;-6.298;2023-05-29T15:50:08;10.75;;;3.47;;
24421;SDS011;12600;53.326;-6.298;2023-05-29T15:52:58;11.43;;;3.80;;
24421;SDS011;12600;53.326;-6.298;2023-05-29T15:55:48;25.20;;;7.28;;
24421;SDS011;12600;53.326;-6.298;2023-05-29T15:58:37;44.15;;;15.43;;
24421;SDS011;12600;53.326;-6.298;2023-05-29T16:01:26;11.73;;;3.70;;
24421;SDS011;12600;53.326;-6.298;2023-05-29T16:04:18;12.18;;;3.33;;
24421;SDS011;12600;53.326;-6.298;2023-05-29T16:07:07;14.43;;;4.25;;
24421;SDS011;12600;53.326;-6.298;2023-05-29T16:09:57;11.10;;;3.22;;
24421;SDS011;12600;53.326;-6.298;2023-05-29T16:12:47;15.82;;;4.47;;
24421;SDS011;12600;53.326;-6.298;2023-05-29T16:15:37;12.82;;;3.67;;
24421;SDS011;12600;53.326;-6.298;2023-05-29T16:18:27;10.60;;;3.70;;
24421;SDS011;12600;53.326;-6.298;2023-05-29T16:21:17;11.00;;;3.40;;
24421;SDS011;12600;53.326;-6.298;2023-05-29T16:24:08;9.45;;;3.13;;
24421;SDS011;12600;53.326;-6.298;2023-05-29T16:26:57;11.73;;;3.28;;
24421;SDS011;12600;53.326;-6.298;2023-05-29T16:29:50;11.68;;;3.55;;
24421;SDS011;12600;53.326;-6.298;2023-05-29T16:32:39;13.80;;;3.42;;
24421;SDS011;12600;53.326;-6.298;2023-05-29T16:35:29;10.40;;;3.50;;
24421;SDS011;12600;53.326;-6.298;2023-05-29T16:38:19;12.15;;;3.78;;
24421;SDS011;12600;53.326;-6.298;2023-05-29T16:41:09;8.88;;;3.60;;
24421;SDS011;12600;53.326;-6.298;2023-05-29T16:43:58;14.88;;;4.22;;
24421;SDS011;12600;53.326;-6.298;2023-05-29T16:46:50;10.90;;;3.63;;
24421;SDS011;12600;53.326;-6.298;2023-05-29T16:49:40;14.27;;;3.38;;
24421;SDS011;12600;53.326;-6.298;2023-05-29T16:52:30;10.10;;;3.22;;
24421;SDS011;12600;53.326;-6.298;2023-05-29T16:55:22;10.45;;;3.90;;
24421;SDS011;12600;53.326;-6.298;2023-05-29T16:58:14;10.13;;;3.40;;